No1 Tokuyama — JK5318 — position and weather

sailwx.info

Track history (hours):
 
Tides and Currents Weather Stations Pressure Air Temp Water Temp Dewpoint Dewpoint Depression Visibility Wind Speed Wind Dir Waves Ship Positions

No1 Tokuyama

Last reported at 2014-Dec-19 07:23 UTC. Time now 2014-Dec-20 03:41 UTC.
Position N 33°54' E 130°22'.

Length 110 m; draft 5.4 m.

Type: Cargo ship. MMSI: 431400487.

Date/timePositionNaut miles runAvg speedWind from/ knotsBaromVisibWave heightAir tempDewpointWater temp
2014-Dec-19 07:23N 33°54' E 130°22'1113.2
2014-Dec-19 06:33N 33°44' E 130°17'9 9.1
2014-Dec-19 05:33N 33°37' E 130°24'0 0.0
2014-Dec-19 04:29N 33°37' E 130°24'0 0.1
2014-Dec-19 03:29N 33°37' E 130°24'0 0.1
2014-Dec-19 02:29N 33°37' E 130°24'0 0.0
2014-Dec-19 01:17N 33°37' E 130°24'0 0.1
2014-Dec-19 00:29N 33°37' E 130°24'0 0.0
2014-Dec-18 23:23N 33°37' E 130°24'0 0.0
2014-Dec-18 22:29N 33°37' E 130°24'3 3.2
2014-Dec-18 21:31N 33°38' E 130°20'0 0.0
2014-Dec-18 20:28N 33°38' E 130°20'0 0.1
2014-Dec-18 19:31N 33°38' E 130°20'0 0.0
2014-Dec-18 18:31N 33°38' E 130°20'0 0.0
2014-Dec-18 17:28N 33°38' E 130°20'0 0.1
2014-Dec-18 16:31N 33°38' E 130°20'7 7.5
2014-Dec-18 15:33N 33°44' E 130°17'  
2014-Dec-16 06:30N 34°33' E 134°45'1414.0
2014-Dec-16 05:29N 34°37' E 135°01'1213.0
2014-Dec-16 04:33N 34°37' E 135°16'9 8.8
2014-Dec-16 03:32N 34°39' E 135°27'0 0.0
2014-Dec-16 02:32N 34°39' E 135°27'0 0.0
2014-Dec-15 22:32N 34°39' E 135°27'4 4.5
2014-Dec-15 21:33N 34°37' E 135°22'0 0.2
2014-Dec-15 20:26N 34°37' E 135°22'0 0.0
2014-Dec-15 19:32N 34°37' E 135°22'0 0.0
2014-Dec-15 18:32N 34°37' E 135°22'0 0.0
2014-Dec-15 17:32N 34°37' E 135°22'0 0.0
2014-Dec-15 16:26N 34°37' E 135°22'0 0.0
2014-Dec-15 15:32N 34°37' E 135°22'9 9.1
2014-Dec-15 14:33N 34°35' E 135°11'1313.3
2014-Dec-15 13:33N 34°35' E 134°55'  
2014-Dec-12 06:17N 35°04' E 139°37'1013.6
2014-Dec-12 05:33N 35°11' E 139°45'1211.9
2014-Dec-12 04:33N 35°23' E 139°42'3 2.7
2014-Dec-12 03:33N 35°26' E 139°41'0 0.0
2014-Dec-12 02:33N 35°26' E 139°41'0 0.0
2014-Dec-12 01:30N 35°26' E 139°41'0 0.0
2014-Dec-12 00:33N 35°26' E 139°41'0 0.0
2014-Dec-11 23:31N 35°26' E 139°41'1 0.5
2014-Dec-11 22:28N 35°26' E 139°42'0 0.0
2014-Dec-11 21:31N 35°26' E 139°42'0 0.0
2014-Dec-11 20:31N 35°26' E 139°42'0 0.0
2014-Dec-11 19:31N 35°26' E 139°42'0 0.0
2014-Dec-11 18:31N 35°26' E 139°42'0 0.0
2014-Dec-11 17:31N 35°26' E 139°42'0 0.0
2014-Dec-11 16:31N 35°26' E 139°42'0 0.0
2014-Dec-11 15:31N 35°26' E 139°42'0 0.0
2014-Dec-11 14:31N 35°26' E 139°42'0 0.0
2014-Dec-11 13:31N 35°26' E 139°42'0 0.0
2014-Dec-11 12:31N 35°26' E 139°42'0 0.0
2014-Dec-11 11:31N 35°26' E 139°42'0 0.0
2014-Dec-11 10:31N 35°26' E 139°42'0 0.0
2014-Dec-11 09:31N 35°26' E 139°42'0 0.0
2014-Dec-11 08:31N 35°26' E 139°42'0 0.0
2014-Dec-11 07:31N 35°26' E 139°42'0 0.0
2014-Dec-11 06:31N 35°26' E 139°42'1 0.9
2014-Dec-11 05:33N 35°26' E 139°43'1110.8
2014-Dec-11 04:33N 35°30' E 139°55'1 0.1
2014-Dec-10 18:19N 35°29' E 139°56'0 0.1
2014-Dec-10 17:28N 35°29' E 139°56'0 0.0
2014-Dec-10 16:31N 35°29' E 139°56'0 0.0
2014-Dec-10 15:34N 35°29' E 139°56'0 0.0
2014-Dec-10 14:22N 35°29' E 139°56'0 0.0
2014-Dec-10 13:28N 35°29' E 139°56'0 0.0
2014-Dec-10 12:22N 35°29' E 139°56'0 0.0
2014-Dec-10 11:28N 35°29' E 139°56'0 0.0
2014-Dec-10 10:31N 35°29' E 139°56'0 0.0
2014-Dec-10 09:28N 35°29' E 139°56'0 0.0
2014-Dec-10 08:31N 35°29' E 139°56'0 0.0
2014-Dec-10 07:13N 35°29' E 139°56'0 0.0
2014-Dec-10 06:28N 35°29' E 139°56'6 6.2
2014-Dec-10 05:33N 35°27' E 139°49'1111.0
2014-Dec-10 04:33N 35°16' E 139°46'  
Track history (hours):
 
Tides and Currents Weather Stations Pressure Air Temp Water Temp Dewpoint Dewpoint Depression Visibility Wind Speed Wind Dir Waves Ship Positions

No1 Tokuyama

Last reported at 2014-Dec-19 07:23 UTC. Time now 2014-Dec-20 03:41 UTC.
Position N 33°54' E 130°22'.

Length 110 m; draft 5.4 m.

Type: Cargo ship. MMSI: 431400487.

Date/timePositionNaut miles runAvg speedWind from/ knotsBaromVisibWave heightAir tempDewpointWater temp
2014-Dec-19 07:23N 33°54' E 130°22'1113.2
2014-Dec-19 06:33N 33°44' E 130°17'9 9.1
2014-Dec-19 05:33N 33°37' E 130°24'0 0.0
2014-Dec-19 04:29N 33°37' E 130°24'0 0.1
2014-Dec-19 03:29N 33°37' E 130°24'0 0.1
2014-Dec-19 02:29N 33°37' E 130°24'0 0.0
2014-Dec-19 01:17N 33°37' E 130°24'0 0.1
2014-Dec-19 00:29N 33°37' E 130°24'0 0.0
2014-Dec-18 23:23N 33°37' E 130°24'0 0.0
2014-Dec-18 22:29N 33°37' E 130°24'3 3.2
2014-Dec-18 21:31N 33°38' E 130°20'0 0.0
2014-Dec-18 20:28N 33°38' E 130°20'0 0.1
2014-Dec-18 19:31N 33°38' E 130°20'0 0.0
2014-Dec-18 18:31N 33°38' E 130°20'0 0.0
2014-Dec-18 17:28N 33°38' E 130°20'0 0.1
2014-Dec-18 16:31N 33°38' E 130°20'7 7.5
2014-Dec-18 15:33N 33°44' E 130°17'  
2014-Dec-16 06:30N 34°33' E 134°45'1414.0
2014-Dec-16 05:29N 34°37' E 135°01'1213.0
2014-Dec-16 04:33N 34°37' E 135°16'9 8.8
2014-Dec-16 03:32N 34°39' E 135°27'0 0.0
2014-Dec-16 02:32N 34°39' E 135°27'0 0.0
2014-Dec-15 22:32N 34°39' E 135°27'4 4.5
2014-Dec-15 21:33N 34°37' E 135°22'0 0.2
2014-Dec-15 20:26N 34°37' E 135°22'0 0.0
2014-Dec-15 19:32N 34°37' E 135°22'0 0.0
2014-Dec-15 18:32N 34°37' E 135°22'0 0.0
2014-Dec-15 17:32N 34°37' E 135°22'0 0.0
2014-Dec-15 16:26N 34°37' E 135°22'0 0.0
2014-Dec-15 15:32N 34°37' E 135°22'9 9.1
2014-Dec-15 14:33N 34°35' E 135°11'1313.3
2014-Dec-15 13:33N 34°35' E 134°55'  
2014-Dec-12 06:17N 35°04' E 139°37'1013.6
2014-Dec-12 05:33N 35°11' E 139°45'1211.9
2014-Dec-12 04:33N 35°23' E 139°42'3 2.7
2014-Dec-12 03:33N 35°26' E 139°41'0 0.0
2014-Dec-12 02:33N 35°26' E 139°41'0 0.0
2014-Dec-12 01:30N 35°26' E 139°41'0 0.0
2014-Dec-12 00:33N 35°26' E 139°41'0 0.0
2014-Dec-11 23:31N 35°26' E 139°41'1 0.5
2014-Dec-11 22:28N 35°26' E 139°42'0 0.0
2014-Dec-11 21:31N 35°26' E 139°42'0 0.0
2014-Dec-11 20:31N 35°26' E 139°42'0 0.0
2014-Dec-11 19:31N 35°26' E 139°42'0 0.0
2014-Dec-11 18:31N 35°26' E 139°42'0 0.0
2014-Dec-11 17:31N 35°26' E 139°42'0 0.0
2014-Dec-11 16:31N 35°26' E 139°42'0 0.0
2014-Dec-11 15:31N 35°26' E 139°42'0 0.0
2014-Dec-11 14:31N 35°26' E 139°42'0 0.0
2014-Dec-11 13:31N 35°26' E 139°42'0 0.0
2014-Dec-11 12:31N 35°26' E 139°42'0 0.0
2014-Dec-11 11:31N 35°26' E 139°42'0 0.0
2014-Dec-11 10:31N 35°26' E 139°42'0 0.0
2014-Dec-11 09:31N 35°26' E 139°42'0 0.0
2014-Dec-11 08:31N 35°26' E 139°42'0 0.0
2014-Dec-11 07:31N 35°26' E 139°42'0 0.0
2014-Dec-11 06:31N 35°26' E 139°42'1 0.9
2014-Dec-11 05:33N 35°26' E 139°43'1110.8
2014-Dec-11 04:33N 35°30' E 139°55'1 0.1
2014-Dec-10 18:19N 35°29' E 139°56'0 0.1
2014-Dec-10 17:28N 35°29' E 139°56'0 0.0
2014-Dec-10 16:31N 35°29' E 139°56'0 0.0
2014-Dec-10 15:34N 35°29' E 139°56'0 0.0
2014-Dec-10 14:22N 35°29' E 139°56'0 0.0
2014-Dec-10 13:28N 35°29' E 139°56'0 0.0
2014-Dec-10 12:22N 35°29' E 139°56'0 0.0
2014-Dec-10 11:28N 35°29' E 139°56'0 0.0
2014-Dec-10 10:31N 35°29' E 139°56'0 0.0
2014-Dec-10 09:28N 35°29' E 139°56'0 0.0
2014-Dec-10 08:31N 35°29' E 139°56'0 0.0
2014-Dec-10 07:13N 35°29' E 139°56'0 0.0
2014-Dec-10 06:28N 35°29' E 139°56'6 6.2
2014-Dec-10 05:33N 35°27' E 139°49'1111.0
2014-Dec-10 04:33N 35°16' E 139°46'  

Dump ship's entire track history